Time;durP1;ratioP1;P1;durP2;ratioP2;P2;SDS_P1;SDS_P2;PMS_P1;PMS_P2;Temp;Humidity;BMP_temperature;BMP_pressure;BME280_temperature;BME280_humidity;BME280_pressure;Samples;Min_cycle;Max_cycle;Signal;HPM_P1;HPM_P2
2021/08/27 00:01:06;;;;;;;7.40;5.17;;;11.40;99.90;;;;;;5099104;28;20184;-45
2021/08/27 00:03:32;;;;;;;6.50;4.50;;;11.50;99.90;;;;;;5098995;28;20430;-45
2021/08/27 00:05:58;;;;;;;8.23;4.93;;;11.50;99.90;;;;;;5099104;28;20223;-45
2021/08/27 00:08:23;;;;;;;7.07;4.93;;;11.60;99.90;;;;;;5098857;28;20185;-45
2021/08/27 00:10:49;;;;;;;7.77;5.20;;;11.60;99.90;;;;;;5098938;28;20187;-45
2021/08/27 00:13:15;;;;;;;5.90;5.23;;;11.70;99.90;;;;;;5098448;28;20786;-45
2021/08/27 00:15:40;;;;;;;8.60;5.03;;;11.70;99.90;;;;;;5098976;28;20273;-45
2021/08/27 00:18:06;;;;;;;7.57;5.53;;;11.80;99.90;;;;;;5098688;28;20200;-45
2021/08/27 00:20:32;;;;;;;5.93;5.30;;;11.80;99.90;;;;;;5098877;28;20466;-45
2021/08/27 00:22:58;;;;;;;6.50;5.00;;;11.80;99.90;;;;;;5098559;28;20465;-46
2021/08/27 00:25:24;;;;;;;5.90;4.97;;;11.80;99.90;;;;;;5098664;28;20316;-45
2021/08/27 00:27:49;;;;;;;5.95;4.90;;;11.80;99.90;;;;;;5098147;28;20713;-45
2021/08/27 00:30:15;;;;;;;7.07;5.17;;;11.80;99.90;;;;;;5097185;28;20259;-45
2021/08/27 00:32:41;;;;;;;6.47;5.23;;;11.80;99.90;;;;;;5098221;28;20601;-45
2021/08/27 00:35:08;;;;;;;6.83;5.00;;;11.80;99.90;;;;;;5098235;28;20205;-45
2021/08/27 00:37:34;;;;;;;7.67;5.07;;;11.80;99.90;;;;;;5098266;28;20875;-45
2021/08/27 00:40:00;;;;;;;6.60;4.90;;;11.80;99.90;;;;;;5098671;28;20417;-45
2021/08/27 00:42:26;;;;;;;5.40;4.90;;;11.80;99.90;;;;;;5098419;28;20417;-45
2021/08/27 00:44:52;;;;;;;6.63;4.60;;;11.90;99.90;;;;;;5097848;28;20426;-45
2021/08/27 00:47:18;;;;;;;6.07;4.70;;;11.80;99.90;;;;;;5098084;28;20421;-45
2021/08/27 00:49:44;;;;;;;5.60;4.88;;;11.90;99.90;;;;;;5097868;28;20430;-45
2021/08/27 00:52:10;;;;;;;7.33;4.70;;;11.90;99.90;;;;;;5097198;28;20296;-45
2021/08/27 00:54:37;;;;;;;6.57;4.37;;;11.90;99.90;;;;;;5097941;28;20851;-45
2021/08/27 00:57:08;;;;;;;7.00;4.80;;;12.00;99.90;;;;;;5096969;28;21032;-45
2021/08/27 00:59:38;;;;;;;8.23;5.13;;;12.00;99.90;;;;;;5098341;28;20411;-45
2021/08/27 01:02:04;;;;;;;7.87;5.00;;;12.00;99.90;;;;;;5097914;28;20502;-45
2021/08/27 01:04:30;;;;;;;16.52;5.47;;;12.10;99.90;;;;;;5097815;28;20418;-45
2021/08/27 01:07:02;;;;;;;6.53;4.90;;;12.10;99.90;;;;;;5096879;28;20181;-45
2021/08/27 01:09:40;;;;;;;5.03;4.20;;;12.10;99.90;;;;;;5098146;28;20430;-45
2021/08/27 01:12:17;;;;;;;12.10;6.10;;;12.10;99.90;;;;;;5097221;28;20586;-45
2021/08/27 01:14:53;;;;;;;5.70;4.60;;;12.20;99.90;;;;;;5097031;28;20436;-45
2021/08/27 01:17:29;;;;;;;6.77;5.10;;;12.20;99.90;;;;;;5096894;28;20424;-45
2021/08/27 01:20:06;;;;;;;5.27;4.77;;;12.20;99.90;;;;;;5098043;28;20410;-45
2021/08/27 01:22:43;;;;;;;8.97;5.43;;;12.20;99.90;;;;;;5097675;28;20426;-45
2021/08/27 01:25:10;;;;;;;5.45;4.70;;;12.20;99.90;;;;;;5097792;28;20808;-45
2021/08/27 01:27:37;;;;;;;10.77;4.90;;;12.20;99.90;;;;;;5095544;28;20173;-45
2021/08/27 01:30:16;;;;;;;7.20;4.90;;;12.20;99.90;;;;;;5095777;28;20470;-45
2021/08/27 01:33:22;;;;;;;7.32;4.53;;;12.30;99.90;;;;;;5095485;28;20594;-45
2021/08/27 01:36:06;;;;;;;10.50;5.33;;;12.30;99.90;;;;;;5094382;28;20565;-45
2021/08/27 01:38:35;;;;;;;5.77;4.40;;;12.30;99.90;;;;;;5095794;28;20747;-45
2021/08/27 01:41:02;;;;;;;8.40;5.03;;;12.30;99.90;;;;;;5095600;28;20421;-45
2021/08/27 01:43:28;;;;;;;7.63;5.13;;;12.30;99.90;;;;;;5097251;28;20686;-45
2021/08/27 01:45:58;;;;;;;7.78;4.70;;;12.30;99.90;;;;;;5097266;28;20419;-45
2021/08/27 01:48:26;;;;;;;6.00;4.50;;;12.30;99.90;;;;;;5096428;28;20245;-45
2021/08/27 01:50:54;;;;;;;6.30;4.40;;;12.30;99.90;;;;;;5096979;28;20453;-45
2021/08/27 01:53:24;;;;;;;5.70;4.80;;;12.30;99.90;;;;;;5097062;28;20752;-45
2021/08/27 01:55:50;;;;;;;6.13;5.37;;;12.30;99.90;;;;;;5096414;28;20426;-45
2021/08/27 01:58:16;;;;;;;5.80;4.83;;;12.40;99.90;;;;;;5096374;28;20402;-45
2021/08/27 02:00:42;;;;;;;7.50;5.03;;;12.40;99.90;;;;;;5096304;28;20181;-45
2021/08/27 02:03:09;;;;;;;6.03;5.10;;;12.40;99.90;;;;;;5094522;28;20169;-45
2021/08/27 02:05:35;;;;;;;6.73;5.10;;;12.40;99.90;;;;;;5095685;28;20438;-45
2021/08/27 02:08:02;;;;;;;7.47;4.97;;;12.40;99.90;;;;;;5094665;28;20871;-45
2021/08/27 02:10:29;;;;;;;6.73;4.80;;;12.40;99.90;;;;;;5095553;28;20430;-45
2021/08/27 02:12:54;;;;;;;8.15;5.32;;;12.40;99.90;;;;;;5094209;28;21053;-45
2021/08/27 02:15:22;;;;;;;7.63;5.67;;;12.40;99.90;;;;;;5095863;28;20212;-45
2021/08/27 02:17:48;;;;;;;8.97;6.77;;;12.40;99.90;;;;;;5096597;28;20554;-45
2021/08/27 02:20:15;;;;;;;7.13;5.10;;;12.40;99.90;;;;;;5100825;28;20415;-45
2021/08/27 02:22:42;;;;;;;7.63;6.10;;;12.50;99.90;;;;;;5100332;28;20431;-45
2021/08/27 02:25:13;;;;;;;6.33;5.00;;;12.50;99.90;;;;;;5082873;28;20466;-45
2021/08/27 02:27:40;;;;;;;5.70;4.50;;;12.50;99.90;;;;;;5099728;28;20453;-45
2021/08/27 02:30:07;;;;;;;8.13;5.50;;;12.50;99.90;;;;;;5099640;28;20544;-45
2021/08/27 02:32:33;;;;;;;5.47;4.93;;;12.50;99.90;;;;;;5100798;28;20323;-45
2021/08/27 02:35:06;;;;;;;7.60;5.13;;;12.50;99.90;;;;;;5099328;28;20501;-45
2021/08/27 02:37:33;;;;;;;6.63;5.15;;;12.50;99.90;;;;;;5099561;28;20419;-45
2021/08/27 02:40:00;;;;;;;6.70;4.30;;;12.50;99.90;;;;;;5099355;28;20265;-45
2021/08/27 02:42:28;;;;;;;6.83;6.13;;;12.50;99.90;;;;;;5100357;28;20787;-45
2021/08/27 02:44:56;;;;;;;6.90;5.20;;;12.50;99.90;;;;;;5100585;28;20830;-45
2021/08/27 02:47:22;;;;;;;10.60;5.43;;;12.50;99.90;;;;;;5100553;28;20508;-45
2021/08/27 02:49:48;;;;;;;5.37;4.80;;;12.50;99.90;;;;;;5100321;28;20860;-45
2021/08/27 02:52:20;;;;;;;10.17;5.07;;;12.60;99.90;;;;;;5099222;28;20472;-45
2021/08/27 02:55:06;;;;;;;6.40;4.87;;;12.60;99.90;;;;;;5100342;28;20407;-45
2021/08/27 02:57:39;;;;;;;7.63;6.13;;;12.60;99.90;;;;;;5100101;28;20941;-45
2021/08/27 03:00:06;;;;;;;9.90;6.33;;;12.60;99.90;;;;;;5098851;28;20411;-53
2021/08/27 03:02:32;;;;;;;9.30;7.80;;;12.70;99.90;;;;;;5100097;28;20712;-45
2021/08/27 03:05:14;;;;;;;10.23;8.50;;;12.70;99.90;;;;;;5100213;28;20559;-45
2021/08/27 03:07:46;;;;;;;14.17;9.30;;;12.70;99.90;;;;;;5100117;28;20492;-45
2021/08/27 03:10:29;;;;;;;10.87;9.53;;;12.70;99.90;;;;;;5100417;28;20820;-45
2021/08/27 03:13:10;;;;;;;12.70;9.87;;;12.70;99.90;;;;;;5100140;28;20458;-45
2021/08/27 03:16:02;;;;;;;12.23;10.53;;;12.70;99.90;;;;;;5099279;28;20415;-45
2021/08/27 03:18:38;;;;;;;12.67;10.10;;;12.70;99.90;;;;;;5099773;28;20429;-45
2021/08/27 03:21:13;;;;;;;12.83;10.97;;;12.70;99.90;;;;;;5098976;28;20414;-46
2021/08/27 03:23:39;;;;;;;13.17;11.77;;;12.70;99.90;;;;;;5099934;28;20430;-45
2021/08/27 03:26:08;;;;;;;11.65;10.27;;;12.70;99.90;;;;;;5099072;28;20414;-45
2021/08/27 03:28:39;;;;;;;13.57;12.17;;;12.70;99.90;;;;;;5098354;28;20608;-45
2021/08/27 03:31:06;;;;;;;13.33;11.70;;;12.70;99.90;;;;;;5097662;28;20486;-45
2021/08/27 03:33:33;;;;;;;17.80;12.13;;;12.70;99.90;;;;;;5098354;28;20882;-45
2021/08/27 03:36:00;;;;;;;13.65;11.15;;;12.70;99.90;;;;;;5099329;28;20410;-45
2021/08/27 03:38:27;;;;;;;14.27;12.27;;;12.70;99.90;;;;;;5099078;28;20180;-45
2021/08/27 03:40:53;;;;;;;14.57;10.70;;;12.70;99.90;;;;;;5098327;28;20415;-45
2021/08/27 03:43:20;;;;;;;14.17;11.93;;;12.70;99.90;;;;;;5099545;28;20426;-45
2021/08/27 03:45:49;;;;;;;13.07;11.75;;;12.70;99.90;;;;;;5099627;28;20418;-45
2021/08/27 03:48:15;;;;;;;15.80;12.50;;;12.60;99.90;;;;;;5099703;28;20172;-45
2021/08/27 03:50:41;;;;;;;20.33;13.33;;;12.70;99.90;;;;;;5098206;28;20430;-45
2021/08/27 03:53:08;;;;;;;14.10;12.65;;;12.70;99.90;;;;;;5099101;28;20462;-45
2021/08/27 03:55:34;;;;;;;14.17;11.60;;;12.70;99.90;;;;;;5098136;28;20199;-45
2021/08/27 03:58:00;;;;;;;14.17;12.67;;;12.60;99.90;;;;;;5099083;28;20418;-45
2021/08/27 04:00:26;;;;;;;13.20;10.20;;;12.60;99.90;;;;;;5099077;28;20505;-45
2021/08/27 04:02:53;;;;;;;13.25;11.15;;;12.50;99.90;;;;;;5098539;28;20934;-47
2021/08/27 04:05:21;;;;;;;10.93;9.73;;;12.50;99.90;;;;;;5099130;28;20173;-47
2021/08/27 04:07:47;;;;;;;11.13;10.10;;;12.50;99.90;;;;;;5098751;28;20433;-47
2021/08/27 04:10:21;;;;;;;11.30;10.10;;;12.50;99.90;;;;;;5098781;28;20419;-47
2021/08/27 04:12:47;;;;;;;9.47;8.57;;;12.50;99.90;;;;;;5098391;28;20509;-47
2021/08/27 04:15:15;;;;;;;9.67;7.93;;;12.40;99.90;;;;;;5098979;28;20463;-47
2021/08/27 04:17:41;;;;;;;9.63;8.73;;;12.40;99.90;;;;;;5098631;28;20426;-47
2021/08/27 04:20:10;;;;;;;10.52;9.55;;;12.40;99.90;;;;;;5098523;28;20419;-47
2021/08/27 04:22:37;;;;;;;11.97;8.23;;;12.40;99.90;;;;;;5098504;28;20176;-47
2021/08/27 04:25:03;;;;;;;10.17;8.57;;;12.40;99.90;;;;;;5098625;28;20479;-47
2021/08/27 04:27:29;;;;;;;11.43;9.63;;;12.40;99.90;;;;;;5098411;28;20422;-47
2021/08/27 04:29:54;;;;;;;10.83;9.73;;;12.30;99.90;;;;;;5097942;28;20765;-47
2021/08/27 04:32:21;;;;;;;11.67;10.57;;;12.30;99.90;;;;;;5098668;28;20245;-47
2021/08/27 04:34:47;;;;;;;10.90;9.80;;;12.30;99.90;;;;;;5098346;28;20169;-46
2021/08/27 04:37:13;;;;;;;13.77;10.07;;;12.30;99.90;;;;;;5098002;28;20499;-47
2021/08/27 04:39:39;;;;;;;12.10;9.80;;;12.30;99.90;;;;;;5098124;28;20415;-47
2021/08/27 04:42:05;;;;;;;12.13;9.57;;;12.30;99.90;;;;;;5097332;28;20216;-46
2021/08/27 04:44:31;;;;;;;11.17;10.07;;;12.30;99.90;;;;;;5098417;28;20411;-47
2021/08/27 04:46:57;;;;;;;11.20;10.00;;;12.30;99.90;;;;;;5097782;28;20433;-46
2021/08/27 04:49:22;;;;;;;13.80;11.10;;;12.30;99.90;;;;;;5098002;28;20418;-47
2021/08/27 04:51:49;;;;;;;15.23;11.00;;;12.30;99.90;;;;;;5097399;28;20525;-47
2021/08/27 04:54:15;;;;;;;15.60;13.00;;;12.30;99.90;;;;;;5095782;28;20410;-47
2021/08/27 04:56:40;;;;;;;13.63;12.10;;;12.30;99.90;;;;;;5095909;28;20402;-47
2021/08/27 04:59:06;;;;;;;17.43;13.13;;;12.30;99.90;;;;;;5094980;28;20263;-47
2021/08/27 05:01:32;;;;;;;15.83;14.10;;;12.30;99.90;;;;;;5094624;28;20168;-47
2021/08/27 05:03:58;;;;;;;14.20;12.80;;;12.30;99.90;;;;;;5089477;28;20233;-47
2021/08/27 05:06:24;;;;;;;15.60;12.90;;;12.40;99.90;;;;;;5094730;28;20493;-47
2021/08/27 05:08:50;;;;;;;15.23;13.47;;;12.30;99.90;;;;;;5094584;28;20301;-48
2021/08/27 05:11:16;;;;;;;12.87;11.53;;;12.40;99.90;;;;;;5093436;28;20712;-47
2021/08/27 05:13:41;;;;;;;16.08;14.40;;;12.40;99.90;;;;;;5083509;28;20470;-47
2021/08/27 05:16:07;;;;;;;15.47;13.90;;;12.40;99.90;;;;;;5084435;28;20182;-47
2021/08/27 05:18:33;;;;;;;16.92;13.00;;;12.40;99.90;;;;;;5086845;28;20188;-47
2021/08/27 05:20:59;;;;;;;15.63;12.93;;;12.50;99.90;;;;;;5085872;28;20186;-47
2021/08/27 05:23:25;;;;;;;14.33;12.93;;;12.50;99.90;;;;;;5084369;28;20481;-47
2021/08/27 05:25:52;;;;;;;16.58;12.25;;;12.60;99.90;;;;;;5086286;28;20507;-47
2021/08/27 05:28:18;;;;;;;16.60;13.10;;;12.60;99.90;;;;;;5085833;28;20216;-47
2021/08/27 05:30:43;;;;;;;13.63;12.23;;;12.60;99.90;;;;;;5085815;28;20420;-47
2021/08/27 05:33:09;;;;;;;15.73;12.05;;;12.60;99.90;;;;;;5090505;28;20215;-47
2021/08/27 05:35:35;;;;;;;13.97;12.53;;;12.60;99.90;;;;;;5095988;28;20177;-47
2021/08/27 05:38:01;;;;;;;15.10;13.60;;;12.70;99.90;;;;;;5096871;28;20184;-48
2021/08/27 05:40:26;;;;;;;15.30;12.33;;;12.70;99.90;;;;;;5097268;28;20420;-47
2021/08/27 05:42:52;;;;;;;15.53;12.70;;;12.80;99.90;;;;;;5097159;28;20245;-47
2021/08/27 05:45:19;;;;;;;14.57;13.18;;;12.90;99.90;;;;;;5096991;28;20553;-47
2021/08/27 05:47:44;;;;;;;15.93;13.63;;;12.90;99.90;;;;;;5097199;28;20176;-47
2021/08/27 05:50:12;;;;;;;16.73;14.17;;;13.00;99.90;;;;;;5097648;28;20415;-47
2021/08/27 05:52:38;;;;;;;13.97;12.60;;;13.00;99.90;;;;;;5098957;28;20497;-47
2021/08/27 05:55:04;;;;;;;16.85;14.25;;;13.00;99.90;;;;;;5100775;28;20434;-47
2021/08/27 05:57:30;;;;;;;14.67;12.93;;;13.10;99.90;;;;;;5100137;28;20549;-47
2021/08/27 05:59:56;;;;;;;14.60;13.20;;;13.10;99.90;;;;;;5082357;28;20533;-47
2021/08/27 06:02:22;;;;;;;14.73;13.00;;;13.10;99.90;;;;;;5098761;28;20180;-48
2021/08/27 06:04:47;;;;;;;13.77;12.47;;;13.10;99.90;;;;;;5099625;28;20433;-47
2021/08/27 06:07:13;;;;;;;17.20;12.93;;;13.20;99.90;;;;;;5097922;28;20434;-47
2021/08/27 06:09:39;;;;;;;14.00;12.70;;;13.20;99.90;;;;;;5099387;28;20203;-47
2021/08/27 06:12:05;;;;;;;14.80;12.47;;;13.20;99.90;;;;;;5093709;28;20895;-47
2021/08/27 06:14:31;;;;;;;12.93;11.60;;;13.20;99.90;;;;;;5080584;28;20177;-47
2021/08/27 06:16:56;;;;;;;13.53;12.07;;;13.30;99.90;;;;;;5080121;28;20434;-48
2021/08/27 06:19:22;;;;;;;12.30;11.13;;;13.30;99.90;;;;;;5078944;28;20177;-47
2021/08/27 06:21:48;;;;;;;12.33;11.13;;;13.40;99.90;;;;;;5080013;28;20165;-47
2021/08/27 06:24:13;;;;;;;12.30;10.60;;;13.40;99.90;;;;;;5079678;28;20173;-47
2021/08/27 06:26:39;;;;;;;10.90;9.80;;;13.40;99.90;;;;;;5078762;28;20418;-47
2021/08/27 06:29:05;;;;;;;13.47;12.00;;;13.40;99.90;;;;;;5086274;28;20326;-47
2021/08/27 06:31:32;;;;;;;10.83;9.83;;;13.50;99.90;;;;;;5097381;28;20156;-48
2021/08/27 06:33:58;;;;;;;13.87;11.33;;;13.60;99.90;;;;;;5085903;28;21024;-47
2021/08/27 06:36:24;;;;;;;10.48;9.07;;;13.60;99.90;;;;;;5083860;28;20435;-47
2021/08/27 06:38:49;;;;;;;10.15;9.25;;;13.80;99.90;;;;;;5098677;28;20238;-47
2021/08/27 06:41:15;;;;;;;10.30;9.33;;;13.90;99.90;;;;;;5098859;28;20185;-47
2021/08/27 06:43:44;;;;;;;14.73;8.57;;;14.10;99.90;;;;;;5099214;28;20459;-47
2021/08/27 06:46:13;;;;;;;9.02;7.70;;;14.30;99.90;;;;;;5097544;28;20570;-47
2021/08/27 06:48:40;;;;;;;9.70;8.67;;;14.40;99.90;;;;;;5097982;28;20426;-47
2021/08/27 06:51:06;;;;;;;8.50;7.70;;;14.50;99.90;;;;;;5099637;28;20410;-47
2021/08/27 06:53:32;;;;;;;7.80;6.97;;;14.60;99.90;;;;;;5099620;28;20462;-47
2021/08/27 06:55:58;;;;;;;8.23;7.53;;;14.70;99.90;;;;;;5098699;28;20486;-47
2021/08/27 06:58:23;;;;;;;8.00;6.87;;;14.70;99.90;;;;;;5098709;28;20833;-47
2021/08/27 07:00:49;;;;;;;7.30;6.60;;;15.00;99.90;;;;;;5099440;28;20252;-47
2021/08/27 07:03:15;;;;;;;7.40;6.80;;;15.20;99.90;;;;;;5099598;28;20431;-47
2021/08/27 07:05:41;;;;;;;7.53;6.80;;;15.40;99.90;;;;;;5096115;28;20188;-47
2021/08/27 07:08:07;;;;;;;7.10;6.17;;;15.60;99.70;;;;;;5097715;28;20586;-47
2021/08/27 07:10:33;;;;;;;8.30;6.93;;;15.70;99.20;;;;;;5097943;28;20177;-47
2021/08/27 07:13:00;;;;;;;8.07;6.83;;;15.70;98.70;;;;;;5097008;28;20484;-47
2021/08/27 07:15:26;;;;;;;8.87;6.60;;;15.80;98.90;;;;;;5097644;28;20657;-47
2021/08/27 07:17:52;;;;;;;6.95;6.40;;;15.90;98.90;;;;;;5097409;28;20521;-47
2021/08/27 07:20:18;;;;;;;6.43;5.80;;;16.20;98.50;;;;;;5096907;28;20253;-47
2021/08/27 07:22:44;;;;;;;6.83;6.23;;;16.60;98.20;;;;;;5095885;28;20706;-47
2021/08/27 07:25:11;;;;;;;6.43;5.80;;;16.90;96.30;;;;;;5097812;28;20460;-47
2021/08/27 07:27:37;;;;;;;6.47;5.73;;;17.00;95.80;;;;;;5098837;28;20446;-47
2021/08/27 07:30:04;;;;;;;6.03;5.43;;;17.10;95.60;;;;;;5098207;28;20478;-47
2021/08/27 07:32:30;;;;;;;5.93;5.33;;;17.10;95.60;;;;;;5097743;28;20626;-47
2021/08/27 07:34:56;;;;;;;5.80;5.30;;;17.00;95.70;;;;;;5098255;28;20478;-47
2021/08/27 07:37:21;;;;;;;7.67;6.03;;;17.10;95.80;;;;;;5095813;28;20207;-47
2021/08/27 07:39:47;;;;;;;5.33;4.67;;;16.90;95.40;;;;;;5096208;28;20167;-47
2021/08/27 07:42:13;;;;;;;8.03;4.97;;;17.00;95.30;;;;;;5096776;28;20414;-47
2021/08/27 07:44:39;;;;;;;6.90;4.70;;;17.10;95.20;;;;;;5096501;28;20176;-47
2021/08/27 07:47:05;;;;;;;5.63;4.67;;;17.10;94.70;;;;;;5096150;28;20263;-46
2021/08/27 07:49:31;;;;;;;6.33;4.50;;;17.30;94.90;;;;;;5097231;28;20419;-47
2021/08/27 07:51:57;;;;;;;5.15;4.13;;;17.60;94.30;;;;;;5097412;28;20531;-47
2021/08/27 07:54:23;;;;;;;6.40;3.87;;;17.80;93.40;;;;;;5099676;28;20168;-46
2021/08/27 07:56:49;;;;;;;4.47;3.70;;;17.80;93.40;;;;;;5098645;28;21985;-47
2021/08/27 07:59:15;;;;;;;4.53;3.37;;;18.20;93.40;;;;;;5097758;28;20411;-47
2021/08/27 08:01:41;;;;;;;4.60;2.83;;;18.60;92.50;;;;;;5098146;28;20451;-47
2021/08/27 08:04:07;;;;;;;6.30;2.92;;;19.10;92.50;;;;;;5097439;28;20175;-47
2021/08/27 08:06:35;;;;;;;2.90;2.53;;;19.70;90.50;;;;;;5097078;28;20168;-47
2021/08/27 08:09:02;;;;;;;4.10;2.37;;;20.40;87.60;;;;;;5096071;28;20177;-47
2021/08/27 08:11:28;;;;;;;3.77;2.40;;;21.30;85.80;;;;;;5095040;28;20421;-47
2021/08/27 08:13:54;;;;;;;6.37;2.30;;;22.10;83.50;;;;;;5095070;28;20462;-47
2021/08/27 08:16:19;;;;;;;4.00;2.23;;;22.80;78.70;;;;;;5094096;28;20428;-47
2021/08/27 08:18:45;;;;;;;1.80;1.60;;;23.50;75.90;;;;;;5094501;28;20181;-47
2021/08/27 08:21:12;;;;;;;2.60;1.90;;;24.50;75.00;;;;;;5096572;28;20188;-47
2021/08/27 08:23:39;;;;;;;4.47;2.10;;;24.50;71.10;;;;;;5097157;28;20188;-47
2021/08/27 08:26:05;;;;;;;4.20;2.73;;;24.00;70.70;;;;;;5097609;28;20446;-47
2021/08/27 08:28:31;;;;;;;3.90;2.00;;;22.60;72.10;;;;;;5095825;28;20501;-47
2021/08/27 08:30:56;;;;;;;3.47;2.20;;;21.90;74.10;;;;;;5095354;28;20562;-47
2021/08/27 08:33:22;;;;;;;3.63;2.20;;;21.20;75.70;;;;;;5097758;28;20613;-47
2021/08/27 08:35:48;;;;;;;2.00;1.73;;;20.30;76.70;;;;;;5097192;28;20176;-47
2021/08/27 08:38:14;;;;;;;3.50;2.40;;;20.40;78.90;;;;;;5097384;28;20208;-46
2021/08/27 08:40:41;;;;;;;3.10;1.87;;;21.90;80.90;;;;;;5097610;28;20165;-47
2021/08/27 08:43:08;;;;;;;4.57;1.95;;;23.50;74.20;;;;;;5097663;28;20453;-40
2021/08/27 08:45:36;;;;;;;5.43;2.20;;;25.10;70.10;;;;;;5097771;28;20427;-40
2021/08/27 08:48:02;;;;;;;3.13;1.40;;;26.00;64.30;;;;;;5096301;28;20840;-39
2021/08/27 08:50:29;;;;;;;3.47;1.88;;;26.50;58.90;;;;;;5095763;28;20418;-42
2021/08/27 08:52:54;;;;;;;4.83;1.90;;;26.30;57.10;;;;;;5097787;28;20234;-41
2021/08/27 08:55:20;;;;;;;2.73;2.17;;;25.90;57.50;;;;;;5094737;28;20793;-41
2021/08/27 08:57:46;;;;;;;3.47;1.50;;;25.50;59.50;;;;;;5095866;28;20168;-40
2021/08/27 09:00:12;;;;;;;2.70;1.57;;;26.20;58.70;;;;;;5097281;28;20844;-39
2021/08/27 09:02:38;;;;;;;4.00;2.57;;;26.80;57.60;;;;;;5096235;28;20176;-40
2021/08/27 09:05:04;;;;;;;6.47;2.17;;;25.70;55.70;;;;;;5096115;28;20717;-40
2021/08/27 09:07:30;;;;;;;5.13;2.20;;;24.60;57.20;;;;;;5096517;28;20176;-38
2021/08/27 09:09:57;;;;;;;3.10;1.73;;;23.70;58.30;;;;;;5095699;28;20457;-41
2021/08/27 09:12:25;;;;;;;5.70;2.27;;;22.60;59.40;;;;;;5095023;28;20602;-42
2021/08/27 09:15:14;;;;;;;4.50;2.10;;;21.90;61.70;;;;;;5095608;28;20689;-42
2021/08/27 09:17:46;;;;;;;3.77;2.40;;;22.30;62.60;;;;;;5096715;28;20418;-43
2021/08/27 09:20:17;;;;;;;2.63;2.00;;;23.00;63.20;;;;;;5096430;28;20508;-38
2021/08/27 09:22:53;;;;;;;3.03;1.43;;;23.50;63.90;;;;;;5096922;28;20429;-40
2021/08/27 09:25:26;;;;;;;3.63;1.73;;;23.80;57.60;;;;;;5095851;28;20425;-45
2021/08/27 09:28:07;;;;;;;4.07;2.17;;;23.50;57.30;;;;;;5097459;28;20455;-41
2021/08/27 09:30:53;;;;;;;3.53;2.00;;;23.00;58.50;;;;;;5100551;28;20414;-41
2021/08/27 09:33:22;;;;;;;6.00;2.30;;;22.90;59.30;;;;;;5100139;28;20466;-38
2021/08/27 09:36:02;;;;;;;2.73;1.50;;;23.00;59.60;;;;;;5100650;28;20410;-39
2021/08/27 09:38:35;;;;;;;2.57;1.70;;;23.80;58.80;;;;;;5100523;28;20418;-38
2021/08/27 09:41:20;;;;;;;2.30;1.77;;;24.30;57.20;;;;;;5098614;28;20449;-42
2021/08/27 09:43:50;;;;;;;3.20;2.30;;;24.30;56.50;;;;;;5097036;28;20426;-39
2021/08/27 09:46:34;;;;;;;3.13;2.20;;;23.90;57.80;;;;;;5097900;28;20415;-41
2021/08/27 09:49:06;;;;;;;1.80;1.70;;;23.00;58.70;;;;;;5098118;28;20715;-43
2021/08/27 09:51:46;;;;;;;2.83;2.53;;;22.30;58.60;;;;;;5095893;28;20414;-43
2021/08/27 09:54:24;;;;;;;3.20;2.13;;;21.60;59.60;;;;;;5096640;28;20692;-40
2021/08/27 09:56:57;;;;;;;2.60;2.40;;;21.50;61.70;;;;;;5097348;28;20717;-41
2021/08/27 09:59:43;;;;;;;2.97;2.10;;;21.50;59.50;;;;;;5097333;28;20684;-39
2021/08/27 10:02:15;;;;;;;2.67;2.47;;;21.40;60.80;;;;;;5099036;28;20414;-43
2021/08/27 10:05:00;;;;;;;3.97;2.20;;;21.30;61.10;;;;;;5099055;28;20812;-43
2021/08/27 10:07:33;;;;;;;5.27;2.40;;;21.20;61.00;;;;;;5098549;28;20437;-40
2021/08/27 10:10:00;;;;;;;4.30;2.67;;;21.20;62.70;;;;;;5099590;28;20855;-43
2021/08/27 10:12:27;;;;;;;5.90;2.30;;;21.80;64.60;;;;;;5098786;28;20466;-39
2021/08/27 10:14:53;;;;;;;3.57;2.23;;;23.60;62.30;;;;;;5100340;28;20427;-42
2021/08/27 10:17:19;;;;;;;2.50;2.30;;;25.70;60.30;;;;;;5100399;28;20441;-40
2021/08/27 10:19:45;;;;;;;4.77;2.70;;;25.90;55.70;;;;;;5100395;28;20558;-41
2021/08/27 10:22:11;;;;;;;4.20;2.77;;;25.10;56.30;;;;;;5098699;28;20437;-41
2021/08/27 10:24:37;;;;;;;3.00;1.90;;;24.00;56.30;;;;;;5099983;28;20180;-42
2021/08/27 10:27:07;;;;;;;4.20;2.13;;;22.80;57.80;;;;;;5098437;28;20184;-41
2021/08/27 10:29:34;;;;;;;6.40;2.80;;;22.10;59.10;;;;;;5098554;28;20752;-42
2021/08/27 10:32:00;;;;;;;8.07;3.03;;;21.50;59.30;;;;;;5098339;28;20434;-40
2021/08/27 10:34:43;;;;;;;7.03;2.47;;;21.20;60.50;;;;;;5098937;28;20817;-42
2021/08/27 10:37:09;;;;;;;2.37;2.00;;;20.90;63.10;;;;;;5097985;28;20176;-39
2021/08/27 10:39:41;;;;;;;4.63;2.23;;;21.80;65.10;;;;;;5098012;28;20681;-41
2021/08/27 10:42:08;;;;;;;4.57;1.87;;;22.50;61.10;;;;;;5097864;28;20518;-43
2021/08/27 10:44:49;;;;;;;2.07;1.77;;;22.70;59.60;;;;;;5097986;28;20426;-40
2021/08/27 10:47:15;;;;;;;4.40;2.47;;;22.50;58.40;;;;;;5097287;28;20449;-41
2021/08/27 10:49:47;;;;;;;5.83;1.90;;;22.10;58.80;;;;;;5098757;28;20421;-42
2021/08/27 10:52:34;;;;;;;4.17;2.27;;;21.80;60.20;;;;;;5099041;28;20734;-42
2021/08/27 10:55:03;;;;;;;4.17;2.10;;;22.80;61.40;;;;;;5099648;28;20421;-43
2021/08/27 10:57:29;;;;;;;2.00;1.70;;;24.10;57.50;;;;;;5099695;28;20422;-42
2021/08/27 10:59:59;;;;;;;2.33;1.90;;;25.80;56.20;;;;;;5099458;28;20173;-40
2021/08/27 11:02:25;;;;;;;2.40;1.73;;;27.90;53.00;;;;;;5099518;28;20435;-44
2021/08/27 11:04:51;;;;;;;2.63;1.60;;;28.80;49.70;;;;;;5098930;28;20426;-41
2021/08/27 11:07:25;;;;;;;2.80;1.90;;;28.90;48.50;;;;;;5098405;28;20173;-43
2021/08/27 11:10:02;;;;;;;3.57;2.10;;;27.70;47.80;;;;;;5099101;28;20422;-40
2021/08/27 11:12:29;;;;;;;2.20;1.70;;;26.70;48.90;;;;;;5098118;28;20440;-41
2021/08/27 11:14:56;;;;;;;2.97;1.90;;;27.30;50.00;;;;;;5099004;28;20442;-40
2021/08/27 11:17:22;;;;;;;2.10;1.60;;;27.00;48.90;;;;;;5097342;28;20208;-41
2021/08/27 11:19:55;;;;;;;3.47;2.20;;;26.30;48.80;;;;;;5098383;28;20449;-42
2021/08/27 11:22:32;;;;;;;2.30;1.63;;;25.40;49.10;;;;;;5097022;28;20527;-40
2021/08/27 11:25:04;;;;;;;3.60;1.70;;;24.70;50.90;;;;;;5095931;28;20433;-42
2021/08/27 11:27:30;;;;;;;4.07;2.40;;;23.70;52.10;;;;;;5096389;28;20422;-39
2021/08/27 11:29:59;;;;;;;3.57;2.00;;;22.90;53.90;;;;;;5096331;28;20331;-43
2021/08/27 11:32:28;;;;;;;3.63;2.23;;;22.40;55.90;;;;;;5096121;28;20478;-40
2021/08/27 11:35:01;;;;;;;3.20;2.40;;;21.80;57.60;;;;;;5096999;28;20821;-40
2021/08/27 11:37:32;;;;;;;3.90;2.30;;;21.50;58.20;;;;;;5095962;28;20422;-40
2021/08/27 11:39:59;;;;;;;2.87;1.90;;;21.20;57.70;;;;;;5095631;28;20411;-40
2021/08/27 11:42:25;;;;;;;2.13;1.60;;;21.10;56.90;;;;;;5094335;28;20502;-42
2021/08/27 11:45:05;;;;;;;2.23;2.00;;;21.20;56.90;;;;;;5097464;28;20824;-40
2021/08/27 11:47:55;;;;;;;3.10;1.90;;;21.80;56.50;;;;;;5098488;28;20426;-41
2021/08/27 11:50:23;;;;;;;6.40;2.20;;;22.50;56.50;;;;;;5097469;28;20521;-44
2021/08/27 11:52:49;;;;;;;3.40;2.43;;;22.70;57.20;;;;;;5096566;28;20470;-46
2021/08/27 11:55:16;;;;;;;5.57;2.47;;;23.00;57.20;;;;;;5098141;28;20513;-41
2021/08/27 11:57:58;;;;;;;4.53;2.40;;;23.00;57.30;;;;;;5097536;28;20505;-42
2021/08/27 12:00:34;;;;;;;3.23;2.93;;;22.40;58.10;;;;;;5097210;28;20410;-43
2021/08/27 12:03:00;;;;;;;3.90;2.37;;;22.40;58.40;;;;;;5095854;28;20418;-44
2021/08/27 12:05:27;;;;;;;6.10;2.67;;;22.90;58.60;;;;;;5096973;28;20425;-43
2021/08/27 12:07:58;;;;;;;4.00;2.33;;;23.80;58.40;;;;;;5096306;28;20260;-44
2021/08/27 12:10:26;;;;;;;3.60;2.20;;;24.90;56.00;;;;;;5097935;28;20418;-44
2021/08/27 12:12:53;;;;;;;3.05;2.30;;;26.00;54.20;;;;;;5098080;28;20887;-40
2021/08/27 12:15:20;;;;;;;3.63;2.00;;;27.60;53.80;;;;;;5096581;28;20184;-42
2021/08/27 12:17:54;;;;;;;4.07;2.17;;;29.00;49.00;;;;;;5097564;28;20757;-42
2021/08/27 12:20:22;;;;;;;2.90;2.27;;;29.70;47.00;;;;;;5098384;28;20479;-41
2021/08/27 12:22:49;;;;;;;4.63;2.30;;;30.90;46.10;;;;;;5097550;28;20436;-43
2021/08/27 12:25:19;;;;;;;2.77;2.30;;;31.10;44.60;;;;;;5096056;28;20418;-43
2021/08/27 12:27:51;;;;;;;3.07;2.03;;;31.40;45.10;;;;;;5095477;28;20423;-43
2021/08/27 12:30:18;;;;;;;2.90;2.50;;;32.20;43.60;;;;;;5095407;28;20523;-44
2021/08/27 12:32:44;;;;;;;3.30;1.60;;;32.70;42.90;;;;;;5094597;28;20730;-42
2021/08/27 12:35:13;;;;;;;3.43;2.07;;;32.00;42.10;;;;;;5095383;28;20502;-42
2021/08/27 12:37:39;;;;;;;4.03;1.90;;;32.30;41.90;;;;;;5093833;28;20741;-41
2021/08/27 12:40:08;;;;;;;3.10;1.80;;;32.60;41.40;;;;;;5094214;28;20759;-43
2021/08/27 12:42:34;;;;;;;2.87;1.90;;;32.20;38.70;;;;;;5095768;28;20408;-41
2021/08/27 12:45:03;;;;;;;2.57;1.87;;;32.20;38.80;;;;;;5095818;28;20422;-43
2021/08/27 12:47:34;;;;;;;3.13;1.77;;;32.30;38.40;;;;;;5096499;28;20172;-41